Time;durP1;ratioP1;P1;durP2;ratioP2;P2;SDS_P1;SDS_P2;PMS_P1;PMS_P2;Temp;Humidity;BMP_temperature;BMP_pressure;BME280_temperature;BME280_humidity;BME280_pressure;Samples;Min_cycle;Max_cycle;Signal;HPM_P1;HPM_P2
2022/10/12 00:00:00;;;;;;;1.4;1.4;;;;;;;8.1;100.0;102290;;;;
2022/10/12 00:01:00;;;;;;;1.4;1.4;;;;;;;8.1;100.0;102290;;;;
2022/10/12 00:02:00;;;;;;;1.4;1.4;;;;;;;8.1;100.0;102290;;;;
2022/10/12 00:03:00;;;;;;;1.4;1.4;;;;;;;8.1;100.0;102290;;;;
2022/10/12 00:04:00;;;;;;;1.4;1.4;;;;;;;8.1;100.0;102290;;;;
2022/10/12 00:05:00;;;;;;;1.4;1.4;;;;;;;8.2;100.0;102290;;;;
2022/10/12 00:06:00;;;;;;;1.4;1.4;;;;;;;8.2;100.0;102290;;;;
2022/10/12 00:07:00;;;;;;;1.6;1.6;;;;;;;8.3;100.0;102290;;;;
2022/10/12 00:08:00;;;;;;;1.6;1.6;;;;;;;8.3;100.0;102290;;;;
2022/10/12 00:09:00;;;;;;;1.6;1.6;;;;;;;8.2;100.0;102290;;;;
2022/10/12 00:10:00;;;;;;;1.6;1.6;;;;;;;8.2;100.0;102290;;;;
2022/10/12 00:11:00;;;;;;;1.6;1.6;;;;;;;7.9;100.0;102290;;;;
2022/10/12 00:12:00;;;;;;;1.6;1.6;;;;;;;7.9;100.0;102290;;;;
2022/10/12 00:13:00;;;;;;;1.6;1.6;;;;;;;8.0;100.0;102290;;;;
2022/10/12 00:14:00;;;;;;;1.6;1.6;;;;;;;8.0;100.0;102290;;;;
2022/10/12 00:15:00;;;;;;;1.6;1.6;;;;;;;8.1;100.0;102290;;;;
2022/10/12 00:16:02;;;;;;;1.6;1.6;;;;;;;8.1;100.0;102290;;;;
2022/10/12 00:17:00;;;;;;;1.6;1.6;;;;;;;8.1;100.0;102290;;;;
2022/10/12 00:18:00;;;;;;;1.6;1.6;;;;;;;8.1;100.0;102290;;;;
2022/10/12 00:19:00;;;;;;;1.6;1.6;;;;;;;8.1;100.0;102290;;;;
2022/10/12 00:20:00;;;;;;;1.6;1.6;;;;;;;8.1;100.0;102290;;;;
2022/10/12 00:21:01;;;;;;;1.6;1.6;;;;;;;8.0;100.0;102290;;;;
2022/10/12 00:22:00;;;;;;;1.6;1.6;;;;;;;8.0;100.0;102290;;;;
2022/10/12 00:23:00;;;;;;;1.6;1.6;;;;;;;8.0;100.0;102290;;;;
2022/10/12 00:24:00;;;;;;;1.6;1.6;;;;;;;8.0;100.0;102290;;;;
2022/10/12 00:25:00;;;;;;;1.6;1.6;;;;;;;8.0;100.0;102280;;;;
2022/10/12 00:26:01;;;;;;;1.4;1.4;;;;;;;8.0;100.0;102280;;;;
2022/10/12 00:27:00;;;;;;;1.4;1.4;;;;;;;8.0;100.0;102290;;;;
2022/10/12 00:28:00;;;;;;;1.4;1.4;;;;;;;8.0;100.0;102290;;;;
2022/10/12 00:29:00;;;;;;;1.4;1.4;;;;;;;7.9;100.0;102290;;;;
2022/10/12 00:30:00;;;;;;;1.4;1.4;;;;;;;7.9;100.0;102290;;;;
2022/10/12 00:31:00;;;;;;;1.4;1.4;;;;;;;7.9;100.0;102290;;;;
2022/10/12 00:32:00;;;;;;;1.4;1.4;;;;;;;7.9;100.0;102290;;;;
2022/10/12 00:33:00;;;;;;;1.4;1.4;;;;;;;8.0;100.0;102290;;;;
2022/10/12 00:34:01;;;;;;;1.4;1.4;;;;;;;8.0;100.0;102290;;;;
2022/10/12 00:35:00;;;;;;;1.4;1.4;;;;;;;7.8;100.0;102290;;;;
2022/10/12 00:36:09;;;;;;;1.4;1.4;;;;;;;7.8;100.0;102290;;;;
2022/10/12 00:37:00;;;;;;;1.4;1.4;;;;;;;7.9;100.0;102280;;;;
2022/10/12 00:38:00;;;;;;;1.4;1.4;;;;;;;7.9;100.0;102280;;;;
2022/10/12 00:39:00;;;;;;;1.4;1.4;;;;;;;7.9;100.0;102280;;;;
2022/10/12 00:40:00;;;;;;;1.4;1.4;;;;;;;7.9;100.0;102280;;;;
2022/10/12 00:41:00;;;;;;;1.4;1.4;;;;;;;7.9;100.0;102290;;;;
2022/10/12 00:42:00;;;;;;;1.4;1.4;;;;;;;7.9;100.0;102290;;;;
2022/10/12 00:43:00;;;;;;;1.4;1.4;;;;;;;7.7;100.0;102290;;;;
2022/10/12 00:44:00;;;;;;;1.4;1.4;;;;;;;7.7;100.0;102290;;;;
2022/10/12 00:45:00;;;;;;;1.4;1.4;;;;;;;7.6;100.0;102290;;;;
2022/10/12 00:46:02;;;;;;;1.4;1.4;;;;;;;7.6;100.0;102290;;;;
2022/10/12 00:47:01;;;;;;;1.4;1.4;;;;;;;7.7;100.0;102290;;;;
2022/10/12 00:48:00;;;;;;;1.4;1.4;;;;;;;7.7;100.0;102290;;;;
2022/10/12 00:49:10;;;;;;;1.4;1.4;;;;;;;7.8;100.0;102290;;;;
2022/10/12 00:50:10;;;;;;;1.4;1.4;;;;;;;7.8;100.0;102290;;;;
2022/10/12 00:51:00;;;;;;;1.4;1.4;;;;;;;7.8;100.0;102300;;;;
2022/10/12 00:52:03;;;;;;;1.4;1.4;;;;;;;7.8;100.0;102300;;;;
2022/10/12 00:53:07;;;;;;;1.4;1.4;;;;;;;7.8;100.0;102290;;;;
2022/10/12 00:54:03;;;;;;;1.4;1.4;;;;;;;7.8;100.0;102290;;;;
2022/10/12 00:55:00;;;;;;;1.4;1.4;;;;;;;7.8;100.0;102290;;;;
2022/10/12 00:56:01;;;;;;;1.4;1.4;;;;;;;7.8;100.0;102290;;;;
2022/10/12 00:57:02;;;;;;;1.4;1.4;;;;;;;7.7;100.0;102290;;;;
2022/10/12 00:58:00;;;;;;;1.4;1.4;;;;;;;7.7;100.0;102290;;;;
2022/10/12 00:59:02;;;;;;;1.4;1.4;;;;;;;7.7;100.0;102290;;;;
2022/10/12 01:00:03;;;;;;;1.4;1.4;;;;;;;7.7;100.0;102290;;;;
2022/10/12 01:01:01;;;;;;;1.4;1.4;;;;;;;7.7;100.0;102290;;;;
2022/10/12 01:02:00;;;;;;;1.4;1.4;;;;;;;7.7;100.0;102290;;;;
2022/10/12 01:03:00;;;;;;;1.4;1.4;;;;;;;7.8;100.0;102290;;;;
2022/10/12 01:04:01;;;;;;;1.4;1.4;;;;;;;7.8;100.0;102290;;;;
2022/10/12 01:05:01;;;;;;;1.4;1.4;;;;;;;7.7;100.0;102290;;;;
2022/10/12 01:06:00;;;;;;;1.4;1.4;;;;;;;7.7;100.0;102290;;;;
2022/10/12 01:07:00;;;;;;;1.4;1.4;;;;;;;7.8;100.0;102290;;;;
2022/10/12 01:08:01;;;;;;;1.4;1.4;;;;;;;7.8;100.0;102290;;;;
2022/10/12 01:09:00;;;;;;;1.4;1.4;;;;;;;7.8;100.0;102290;;;;
2022/10/12 01:10:00;;;;;;;1.4;1.4;;;;;;;7.8;100.0;102290;;;;
2022/10/12 01:11:00;;;;;;;1.4;1.4;;;;;;;7.9;100.0;102290;;;;
2022/10/12 01:12:03;;;;;;;1.4;1.4;;;;;;;7.9;100.0;102290;;;;
2022/10/12 01:13:00;;;;;;;1.4;1.4;;;;;;;7.8;100.0;102290;;;;
2022/10/12 01:14:00;;;;;;;1.4;1.4;;;;;;;7.8;100.0;102290;;;;
2022/10/12 01:15:00;;;;;;;1.4;1.4;;;;;;;7.8;100.0;102280;;;;
2022/10/12 01:16:10;;;;;;;1.4;1.4;;;;;;;7.8;100.0;102280;;;;
2022/10/12 01:17:00;;;;;;;1.4;1.4;;;;;;;7.9;100.0;102280;;;;
2022/10/12 01:18:03;;;;;;;1.4;1.4;;;;;;;7.9;100.0;102280;;;;
2022/10/12 01:19:10;;;;;;;1.4;1.4;;;;;;;7.9;100.0;102280;;;;
2022/10/12 01:20:10;;;;;;;1.4;1.4;;;;;;;7.9;100.0;102280;;;;
2022/10/12 01:21:04;;;;;;;1.4;1.4;;;;;;;7.9;100.0;102280;;;;
2022/10/12 01:22:02;;;;;;;1.4;1.4;;;;;;;7.9;100.0;102280;;;;
2022/10/12 01:23:10;;;;;;;1.4;1.4;;;;;;;7.9;100.0;102280;;;;
2022/10/12 01:24:10;;;;;;;1.4;1.4;;;;;;;7.9;100.0;102280;;;;
2022/10/12 01:25:07;;;;;;;1.4;1.4;;;;;;;7.9;100.0;102270;;;;
2022/10/12 01:26:10;;;;;;;1.6;1.6;;;;;;;7.9;100.0;102270;;;;
2022/10/12 01:27:10;;;;;;;1.6;1.6;;;;;;;7.9;100.0;102270;;;;
2022/10/12 01:28:10;;;;;;;1.6;1.6;;;;;;;7.9;100.0;102270;;;;
2022/10/12 01:29:10;;;;;;;1.6;1.6;;;;;;;7.9;100.0;102270;;;;
2022/10/12 01:30:05;;;;;;;1.6;1.6;;;;;;;7.9;100.0;102270;;;;
2022/10/12 01:31:07;;;;;;;1.6;1.6;;;;;;;7.9;100.0;102260;;;;
2022/10/12 01:32:10;;;;;;;1.6;1.6;;;;;;;7.9;100.0;102260;;;;
2022/10/12 01:33:03;;;;;;;1.6;1.6;;;;;;;8.0;100.0;102260;;;;
2022/10/12 01:34:08;;;;;;;1.6;1.6;;;;;;;8.0;100.0;102260;;;;
2022/10/12 01:35:04;;;;;;;1.6;1.6;;;;;;;7.9;100.0;102260;;;;
2022/10/12 01:36:06;;;;;;;1.6;1.6;;;;;;;7.9;100.0;102260;;;;
2022/10/12 01:37:04;;;;;;;1.6;1.6;;;;;;;8.0;100.0;102260;;;;
2022/10/12 01:38:10;;;;;;;1.6;1.6;;;;;;;8.0;100.0;102260;;;;
2022/10/12 01:39:06;;;;;;;1.6;1.6;;;;;;;8.0;100.0;102260;;;;
2022/10/12 01:40:02;;;;;;;1.6;1.6;;;;;;;8.0;100.0;102260;;;;
2022/10/12 01:41:05;;;;;;;1.6;1.6;;;;;;;8.0;100.0;102250;;;;
2022/10/12 01:42:05;;;;;;;1.6;1.6;;;;;;;8.0;100.0;102250;;;;
2022/10/12 01:43:00;;;;;;;1.6;1.6;;;;;;;8.0;100.0;102250;;;;
2022/10/12 01:44:00;;;;;;;1.6;1.6;;;;;;;8.0;100.0;102250;;;;
2022/10/12 01:45:01;;;;;;;1.6;1.6;;;;;;;7.9;100.0;102250;;;;
2022/10/12 01:46:10;;;;;;;1.5;1.5;;;;;;;7.9;100.0;102250;;;;
2022/10/12 01:47:00;;;;;;;1.5;1.5;;;;;;;7.9;100.0;102250;;;;
2022/10/12 01:48:00;;;;;;;1.5;1.5;;;;;;;7.9;100.0;102250;;;;
2022/10/12 01:49:00;;;;;;;1.5;1.5;;;;;;;8.0;100.0;102240;;;;
2022/10/12 01:50:01;;;;;;;1.5;1.5;;;;;;;8.0;100.0;102240;;;;
2022/10/12 01:51:01;;;;;;;1.5;1.5;;;;;;;8.0;100.0;102240;;;;
2022/10/12 01:52:00;;;;;;;1.5;1.5;;;;;;;8.0;100.0;102240;;;;
2022/10/12 01:53:10;;;;;;;1.5;1.5;;;;;;;8.0;100.0;102240;;;;
2022/10/12 01:54:08;;;;;;;1.5;1.5;;;;;;;8.0;100.0;102240;;;;
2022/10/12 01:55:00;;;;;;;1.5;1.5;;;;;;;8.0;100.0;102240;;;;
2022/10/12 01:56:07;;;;;;;1.5;1.5;;;;;;;8.0;100.0;102240;;;;
2022/10/12 01:57:00;;;;;;;1.5;1.5;;;;;;;8.0;100.0;102240;;;;
2022/10/12 01:58:10;;;;;;;1.5;1.5;;;;;;;8.0;100.0;102240;;;;
2022/10/12 01:59:10;;;;;;;1.5;1.5;;;;;;;8.0;100.0;102240;;;;
2022/10/12 02:00:03;;;;;;;1.5;1.5;;;;;;;8.0;100.0;102240;;;;
2022/10/12 02:01:10;;;;;;;1.5;1.5;;;;;;;8.0;100.0;102240;;;;
2022/10/12 02:02:05;;;;;;;1.5;1.5;;;;;;;8.0;100.0;102240;;;;
2022/10/12 02:03:10;;;;;;;1.5;1.5;;;;;;;8.0;100.0;102240;;;;
2022/10/12 02:04:10;;;;;;;1.5;1.5;;;;;;;8.0;100.0;102240;;;;
2022/10/12 02:05:03;;;;;;;1.5;1.5;;;;;;;8.0;100.0;102230;;;;
2022/10/12 02:06:02;;;;;;;1.5;1.5;;;;;;;8.0;100.0;102230;;;;
2022/10/12 02:07:03;;;;;;;1.5;1.5;;;;;;;7.9;100.0;102230;;;;
2022/10/12 02:08:03;;;;;;;1.5;1.5;;;;;;;7.9;100.0;102230;;;;
2022/10/12 02:09:05;;;;;;;1.5;1.5;;;;;;;7.9;100.0;102230;;;;
2022/10/12 02:10:01;;;;;;;1.5;1.5;;;;;;;7.9;100.0;102230;;;;
2022/10/12 02:11:10;;;;;;;1.5;1.5;;;;;;;8.0;100.0;102230;;;;
2022/10/12 02:12:05;;;;;;;1.5;1.5;;;;;;;8.0;100.0;102230;;;;
2022/10/12 02:13:01;;;;;;;1.5;1.5;;;;;;;7.9;100.0;102230;;;;
2022/10/12 02:14:01;;;;;;;1.5;1.5;;;;;;;7.9;100.0;102230;;;;
2022/10/12 02:15:03;;;;;;;1.5;1.5;;;;;;;7.9;100.0;102230;;;;
2022/10/12 02:16:02;;;;;;;1.5;1.5;;;;;;;7.9;100.0;102230;;;;
2022/10/12 02:17:03;;;;;;;1.5;1.5;;;;;;;7.9;100.0;102230;;;;
2022/10/12 02:18:01;;;;;;;1.5;1.5;;;;;;;7.9;100.0;102230;;;;
2022/10/12 02:19:02;;;;;;;1.5;1.5;;;;;;;7.9;100.0;102230;;;;
2022/10/12 02:20:02;;;;;;;1.5;1.5;;;;;;;7.9;100.0;102230;;;;
2022/10/12 02:21:01;;;;;;;1.5;1.5;;;;;;;7.8;100.0;102230;;;;
2022/10/12 02:22:01;;;;;;;1.5;1.5;;;;;;;7.8;100.0;102230;;;;
2022/10/12 02:23:00;;;;;;;1.5;1.5;;;;;;;7.9;100.0;102230;;;;
2022/10/12 02:24:01;;;;;;;1.5;1.5;;;;;;;7.9;100.0;102230;;;;
2022/10/12 02:25:03;;;;;;;1.5;1.5;;;;;;;7.9;100.0;102220;;;;
2022/10/12 02:26:00;;;;;;;1.3;1.3;;;;;;;7.9;100.0;102220;;;;
2022/10/12 02:27:00;;;;;;;1.3;1.3;;;;;;;7.9;100.0;102220;;;;
2022/10/12 02:28:06;;;;;;;1.3;1.3;;;;;;;7.9;100.0;102220;;;;
2022/10/12 02:29:02;;;;;;;1.3;1.3;;;;;;;7.8;100.0;102210;;;;
2022/10/12 02:30:00;;;;;;;1.3;1.3;;;;;;;7.8;100.0;102210;;;;
2022/10/12 02:31:03;;;;;;;1.3;1.3;;;;;;;7.8;100.0;102210;;;;
2022/10/12 02:32:01;;;;;;;1.3;1.3;;;;;;;7.8;100.0;102210;;;;
2022/10/12 02:33:06;;;;;;;1.3;1.3;;;;;;;7.8;100.0;102220;;;;
2022/10/12 02:34:05;;;;;;;1.3;1.3;;;;;;;7.8;100.0;102220;;;;
2022/10/12 02:35:03;;;;;;;1.3;1.3;;;;;;;7.8;100.0;102220;;;;
2022/10/12 02:36:06;;;;;;;1.3;1.3;;;;;;;7.8;100.0;102220;;;;
2022/10/12 02:37:01;;;;;;;1.3;1.3;;;;;;;7.8;100.0;102220;;;;
2022/10/12 02:38:05;;;;;;;1.3;1.3;;;;;;;7.8;100.0;102220;;;;
2022/10/12 02:39:04;;;;;;;1.3;1.3;;;;;;;7.7;100.0;102220;;;;
2022/10/12 02:40:05;;;;;;;1.3;1.3;;;;;;;7.7;100.0;102220;;;;
2022/10/12 02:41:05;;;;;;;1.3;1.3;;;;;;;7.7;100.0;102210;;;;
2022/10/12 02:42:05;;;;;;;1.3;1.3;;;;;;;7.7;100.0;102210;;;;
2022/10/12 02:43:11;;;;;;;1.3;1.3;;;;;;;7.7;100.0;102210;;;;
2022/10/12 02:44:01;;;;;;;1.3;1.3;;;;;;;7.7;100.0;102210;;;;
2022/10/12 02:45:03;;;;;;;1.3;1.3;;;;;;;7.7;100.0;102210;;;;
2022/10/12 02:46:00;;;;;;;1.4;1.4;;;;;;;7.7;100.0;102210;;;;
2022/10/12 02:47:01;;;;;;;1.4;1.4;;;;;;;7.7;100.0;102210;;;;
2022/10/12 02:48:00;;;;;;;1.4;1.4;;;;;;;7.7;100.0;102210;;;;
2022/10/12 02:49:01;;;;;;;1.4;1.4;;;;;;;7.7;100.0;102210;;;;
2022/10/12 02:50:01;;;;;;;1.4;1.4;;;;;;;7.7;100.0;102210;;;;
2022/10/12 02:51:01;;;;;;;1.4;1.4;;;;;;;7.6;100.0;102210;;;;
2022/10/12 02:52:01;;;;;;;1.4;1.4;;;;;;;7.6;100.0;102210;;;;
2022/10/12 02:53:02;;;;;;;1.4;1.4;;;;;;;7.6;100.0;102210;;;;
2022/10/12 02:54:00;;;;;;;1.4;1.4;;;;;;;7.6;100.0;102210;;;;
2022/10/12 02:55:00;;;;;;;1.4;1.4;;;;;;;7.6;100.0;102220;;;;
2022/10/12 02:56:02;;;;;;;1.4;1.4;;;;;;;7.6;100.0;102220;;;;
2022/10/12 02:57:00;;;;;;;1.4;1.4;;;;;;;7.5;100.0;102210;;;;
2022/10/12 02:58:00;;;;;;;1.4;1.4;;;;;;;7.5;100.0;102210;;;;
2022/10/12 02:59:00;;;;;;;1.4;1.4;;;;;;;7.5;100.0;102210;;;;
2022/10/12 03:00:00;;;;;;;1.4;1.4;;;;;;;7.5;100.0;102210;;;;
2022/10/12 03:01:00;;;;;;;1.4;1.4;;;;;;;7.5;100.0;102210;;;;
2022/10/12 03:02:00;;;;;;;1.4;1.4;;;;;;;7.5;100.0;102210;;;;
2022/10/12 03:03:00;;;;;;;1.4;1.4;;;;;;;7.5;100.0;102210;;;;
2022/10/12 03:04:00;;;;;;;1.4;1.4;;;;;;;7.5;100.0;102210;;;;
2022/10/12 03:05:00;;;;;;;1.4;1.4;;;;;;;7.5;100.0;102200;;;;
2022/10/12 03:06:00;;;;;;;1.5;1.5;;;;;;;7.5;100.0;102200;;;;
2022/10/12 03:07:00;;;;;;;1.5;1.5;;;;;;;7.5;100.0;102200;;;;
2022/10/12 03:08:00;;;;;;;1.5;1.5;;;;;;;7.5;100.0;102200;;;;
2022/10/12 03:09:00;;;;;;;1.5;1.5;;;;;;;7.5;100.0;102200;;;;
2022/10/12 03:10:00;;;;;;;1.5;1.5;;;;;;;7.5;100.0;102200;;;;
2022/10/12 03:11:01;;;;;;;1.5;1.5;;;;;;;7.5;100.0;102200;;;;
2022/10/12 03:12:00;;;;;;;1.5;1.5;;;;;;;7.5;100.0;102200;;;;
2022/10/12 03:13:00;;;;;;;1.5;1.5;;;;;;;7.4;100.0;102190;;;;
2022/10/12 03:14:00;;;;;;;1.5;1.5;;;;;;;7.4;100.0;102190;;;;
2022/10/12 03:15:00;;;;;;;1.5;1.5;;;;;;;7.4;100.0;102190;;;;
2022/10/12 03:16:01;;;;;;;1.5;1.5;;;;;;;7.4;100.0;102190;;;;
2022/10/12 03:17:00;;;;;;;1.5;1.5;;;;;;;7.4;100.0;102190;;;;
2022/10/12 03:18:00;;;;;;;1.5;1.5;;;;;;;7.4;100.0;102190;;;;
2022/10/12 03:19:00;;;;;;;1.5;1.5;;;;;;;7.3;100.0;102200;;;;
2022/10/12 03:20:00;;;;;;;1.5;1.5;;;;;;;7.3;100.0;102200;;;;
2022/10/12 03:21:00;;;;;;;1.5;1.5;;;;;;;7.4;100.0;102190;;;;
2022/10/12 03:22:00;;;;;;;1.5;1.5;;;;;;;7.4;100.0;102190;;;;
2022/10/12 03:23:00;;;;;;;1.5;1.5;;;;;;;7.4;100.0;102190;;;;
2022/10/12 03:24:00;;;;;;;1.5;1.5;;;;;;;7.4;100.0;102190;;;;
2022/10/12 03:25:00;;;;;;;1.5;1.5;;;;;;;7.4;100.0;102190;;;;
2022/10/12 03:26:00;;;;;;;1.4;1.4;;;;;;;7.4;100.0;102190;;;;
2022/10/12 03:27:00;;;;;;;1.4;1.4;;;;;;;7.4;100.0;102190;;;;
2022/10/12 03:28:00;;;;;;;1.4;1.4;;;;;;;7.4;100.0;102190;;;;
2022/10/12 03:29:00;;;;;;;1.4;1.4;;;;;;;7.4;100.0;102190;;;;
2022/10/12 03:30:00;;;;;;;1.4;1.4;;;;;;;7.4;100.0;102190;;;;
2022/10/12 03:31:00;;;;;;;1.4;1.4;;;;;;;7.4;100.0;102200;;;;
2022/10/12 03:32:00;;;;;;;1.4;1.4;;;;;;;7.4;100.0;102200;;;;
2022/10/12 03:33:00;;;;;;;1.4;1.4;;;;;;;7.3;100.0;102200;;;;
2022/10/12 03:34:00;;;;;;;1.4;1.4;;;;;;;7.3;100.0;102200;;;;
2022/10/12 03:35:00;;;;;;;1.4;1.4;;;;;;;7.3;100.0;102200;;;;
2022/10/12 03:36:00;;;;;;;1.4;1.4;;;;;;;7.3;100.0;102200;;;;
2022/10/12 03:37:00;;;;;;;1.4;1.4;;;;;;;7.3;100.0;102190;;;;
2022/10/12 03:38:00;;;;;;;1.4;1.4;;;;;;;7.3;100.0;102190;;;;
2022/10/12 03:39:00;;;;;;;1.4;1.4;;;;;;;7.3;100.0;102190;;;;
2022/10/12 03:40:00;;;;;;;1.4;1.4;;;;;;;7.3;100.0;102190;;;;
2022/10/12 03:41:06;;;;;;;1.4;1.4;;;;;;;7.3;100.0;102190;;;;
2022/10/12 03:42:00;;;;;;;1.4;1.4;;;;;;;7.3;100.0;102190;;;;
2022/10/12 03:43:00;;;;;;;1.4;1.4;;;;;;;7.2;100.0;102190;;;;
2022/10/12 03:44:00;;;;;;;1.4;1.4;;;;;;;7.2;100.0;102190;;;;
2022/10/12 03:45:00;;;;;;;1.4;1.4;;;;;;;7.1;100.0;102190;;;;
2022/10/12 03:46:00;;;;;;;1.6;1.6;;;;;;;7.1;100.0;102190;;;;
2022/10/12 03:47:00;;;;;;;1.6;1.6;;;;;;;7.2;100.0;102190;;;;
2022/10/12 03:48:05;;;;;;;1.6;1.6;;;;;;;7.2;100.0;102190;;;;
2022/10/12 03:49:00;;;;;;;1.6;1.6;;;;;;;7.1;100.0;102190;;;;
2022/10/12 03:50:00;;;;;;;1.6;1.6;;;;;;;7.1;100.0;102190;;;;
2022/10/12 03:51:00;;;;;;;1.6;1.6;;;;;;;7.1;100.0;102190;;;;
2022/10/12 03:52:00;;;;;;;1.6;1.6;;;;;;;7.1;100.0;102190;;;;
2022/10/12 03:53:01;;;;;;;1.6;1.6;;;;;;;7.1;100.0;102190;;;;
2022/10/12 03:54:00;;;;;;;1.6;1.6;;;;;;;7.1;100.0;102190;;;;
2022/10/12 03:55:00;;;;;;;1.6;1.6;;;;;;;7.0;100.0;102190;;;;
2022/10/12 03:56:00;;;;;;;1.6;1.6;;;;;;;7.0;100.0;102190;;;;
2022/10/12 03:57:00;;;;;;;1.6;1.6;;;;;;;7.0;100.0;102190;;;;
2022/10/12 03:58:00;;;;;;;1.6;1.6;;;;;;;7.0;100.0;102190;;;;
2022/10/12 03:59:00;;;;;;;1.6;1.6;;;;;;;7.1;100.0;102190;;;;
2022/10/12 04:00:00;;;;;;;1.6;1.6;;;;;;;7.1;100.0;102190;;;;
2022/10/12 04:01:00;;;;;;;1.6;1.6;;;;;;;6.9;100.0;102190;;;;
2022/10/12 04:02:00;;;;;;;1.6;1.6;;;;;;;6.9;100.0;102190;;;;
2022/10/12 04:03:01;;;;;;;1.6;1.6;;;;;;;6.9;100.0;102190;;;;
2022/10/12 04:04:00;;;;;;;1.6;1.6;;;;;;;6.9;100.0;102190;;;;
2022/10/12 04:05:00;;;;;;;1.6;1.6;;;;;;;6.9;100.0;102190;;;;
2022/10/12 04:06:00;;;;;;;2.1;2.1;;;;;;;6.9;100.0;102190;;;;
2022/10/12 04:07:00;;;;;;;2.1;2.1;;;;;;;7.0;100.0;102180;;;;
2022/10/12 04:08:00;;;;;;;2.1;2.1;;;;;;;7.0;100.0;102180;;;;
2022/10/12 04:09:00;;;;;;;2.1;2.1;;;;;;;7.0;100.0;102180;;;;
2022/10/12 04:10:00;;;;;;;2.1;2.1;;;;;;;7.0;100.0;102180;;;;
2022/10/12 04:11:00;;;;;;;2.1;2.1;;;;;;;7.0;100.0;102180;;;;
2022/10/12 04:12:00;;;;;;;2.1;2.1;;;;;;;7.0;100.0;102180;;;;
2022/10/12 04:13:00;;;;;;;2.1;2.1;;;;;;;6.9;100.0;102180;;;;
2022/10/12 04:14:00;;;;;;;2.1;2.1;;;;;;;6.9;100.0;102180;;;;
2022/10/12 04:15:00;;;;;;;2.1;2.1;;;;;;;6.9;100.0;102180;;;;
2022/10/12 04:16:01;;;;;;;2.1;2.1;;;;;;;6.9;100.0;102180;;;;
2022/10/12 04:17:00;;;;;;;2.1;2.1;;;;;;;6.8;100.0;102180;;;;
2022/10/12 04:18:00;;;;;;;2.1;2.1;;;;;;;6.8;100.0;102180;;;;
2022/10/12 04:19:00;;;;;;;2.1;2.1;;;;;;;6.8;100.0;102180;;;;
2022/10/12 04:20:00;;;;;;;2.1;2.1;;;;;;;6.8;100.0;102180;;;;
2022/10/12 04:21:00;;;;;;;2.1;2.1;;;;;;;6.8;100.0;102180;;;;
2022/10/12 04:22:00;;;;;;;2.1;2.1;;;;;;;6.8;100.0;102180;;;;
2022/10/12 04:23:00;;;;;;;2.1;2.1;;;;;;;6.8;100.0;102180;;;;
2022/10/12 04:24:00;;;;;;;2.1;2.1;;;;;;;6.8;100.0;102180;;;;
2022/10/12 04:25:00;;;;;;;2.1;2.1;;;;;;;6.8;100.0;102180;;;;
2022/10/12 04:26:00;;;;;;;2.1;2.1;;;;;;;6.8;100.0;102180;;;;
2022/10/12 04:27:00;;;;;;;2.1;2.1;;;;;;;6.7;100.0;102180;;;;
2022/10/12 04:28:00;;;;;;;2.1;2.1;;;;;;;6.7;100.0;102180;;;;
2022/10/12 04:29:00;;;;;;;2.1;2.1;;;;;;;6.8;100.0;102170;;;;
2022/10/12 04:30:00;;;;;;;2.1;2.1;;;;;;;6.8;100.0;102170;;;;
2022/10/12 04:31:00;;;;;;;2.1;2.1;;;;;;;6.8;100.0;102170;;;;
2022/10/12 04:32:00;;;;;;;2.1;2.1;;;;;;;6.8;100.0;102170;;;;
2022/10/12 04:33:00;;;;;;;2.1;2.1;;;;;;;6.7;100.0;102170;;;;
2022/10/12 04:34:00;;;;;;;2.1;2.1;;;;;;;6.7;100.0;102170;;;;
2022/10/12 04:35:00;;;;;;;2.1;2.1;;;;;;;6.7;100.0;102170;;;;
2022/10/12 04:36:00;;;;;;;2.1;2.1;;;;;;;6.7;100.0;102170;;;;
2022/10/12 04:37:00;;;;;;;2.1;2.1;;;;;;;6.8;100.0;102170;;;;
2022/10/12 04:38:00;;;;;;;2.1;2.1;;;;;;;6.8;100.0;102170;;;;
2022/10/12 04:39:01;;;;;;;2.1;2.1;;;;;;;6.8;100.0;102170;;;;
2022/10/12 04:40:00;;;;;;;2.1;2.1;;;;;;;6.8;100.0;102170;;;;
2022/10/12 04:41:00;;;;;;;2.1;2.1;;;;;;;6.8;100.0;102170;;;;
2022/10/12 04:42:01;;;;;;;2.1;2.1;;;;;;;6.8;100.0;102170;;;;
2022/10/12 04:43:00;;;;;;;2.1;2.1;;;;;;;6.8;100.0;102170;;;;
2022/10/12 04:44:00;;;;;;;2.1;2.1;;;;;;;6.8;100.0;102170;;;;
2022/10/12 04:45:00;;;;;;;1.7;1.7;;;;;;;6.7;100.0;102170;;;;
2022/10/12 04:46:00;;;;;;;1.7;1.7;;;;;;;6.7;100.0;102170;;;;
2022/10/12 04:47:01;;;;;;;1.7;1.7;;;;;;;6.7;100.0;102170;;;;
2022/10/12 04:48:00;;;;;;;1.7;1.7;;;;;;;6.7;100.0;102170;;;;
2022/10/12 04:49:00;;;;;;;1.7;1.7;;;;;;;6.7;100.0;102180;;;;
2022/10/12 04:50:00;;;;;;;1.7;1.7;;;;;;;6.7;100.0;102180;;;;
2022/10/12 04:51:00;;;;;;;1.7;1.7;;;;;;;6.6;100.0;102180;;;;
2022/10/12 04:52:00;;;;;;;1.7;1.7;;;;;;;6.6;100.0;102180;;;;
2022/10/12 04:53:00;;;;;;;1.7;1.7;;;;;;;6.6;100.0;102180;;;;
2022/10/12 04:54:00;;;;;;;1.7;1.7;;;;;;;6.6;100.0;102180;;;;
2022/10/12 04:55:00;;;;;;;1.7;1.7;;;;;;;6.5;100.0;102180;;;;
2022/10/12 04:56:01;;;;;;;1.7;1.7;;;;;;;6.5;100.0;102180;;;;
2022/10/12 04:57:00;;;;;;;1.7;1.7;;;;;;;6.5;100.0;102180;;;;
2022/10/12 04:58:00;;;;;;;1.7;1.7;;;;;;;6.5;100.0;102180;;;;
2022/10/12 04:59:00;;;;;;;1.7;1.7;;;;;;;6.5;100.0;102180;;;;
2022/10/12 05:00:00;;;;;;;1.7;1.7;;;;;;;6.5;100.0;102180;;;;
2022/10/12 05:01:00;;;;;;;1.7;1.7;;;;;;;6.4;100.0;102180;;;;
2022/10/12 05:02:00;;;;;;;1.7;1.7;;;;;;;6.4;100.0;102180;;;;
2022/10/12 05:03:00;;;;;;;1.7;1.7;;;;;;;6.3;100.0;102180;;;;
2022/10/12 05:04:00;;;;;;;1.7;1.7;;;;;;;6.3;100.0;102180;;;;
2022/10/12 05:05:00;;;;;;;1.6;1.6;;;;;;;6.4;100.0;102180;;;;
2022/10/12 05:06:00;;;;;;;1.6;1.6;;;;;;;6.4;100.0;102180;;;;
2022/10/12 05:07:00;;;;;;;1.6;1.6;;;;;;;6.5;100.0;102190;;;;
2022/10/12 05:08:00;;;;;;;1.6;1.6;;;;;;;6.5;100.0;102190;;;;
2022/10/12 05:09:00;;;;;;;1.6;1.6;;;;;;;6.4;100.0;102180;;;;
2022/10/12 05:10:00;;;;;;;1.6;1.6;;;;;;;6.4;100.0;102180;;;;
2022/10/12 05:11:00;;;;;;;1.6;1.6;;;;;;;6.3;100.0;102180;;;;
2022/10/12 05:12:00;;;;;;;1.6;1.6;;;;;;;6.3;100.0;102180;;;;
2022/10/12 05:13:00;;;;;;;1.6;1.6;;;;;;;6.4;100.0;102180;;;;
2022/10/12 05:14:00;;;;;;;1.6;1.6;;;;;;;6.4;100.0;102180;;;;
2022/10/12 05:15:00;;;;;;;1.6;1.6;;;;;;;6.4;100.0;102180;;;;
2022/10/12 05:16:00;;;;;;;1.6;1.6;;;;;;;6.4;100.0;102180;;;;
2022/10/12 05:17:00;;;;;;;1.6;1.6;;;;;;;6.3;100.0;102170;;;;
2022/10/12 05:18:00;;;;;;;1.6;1.6;;;;;;;6.3;100.0;102170;;;;
2022/10/12 05:19:00;;;;;;;1.6;1.6;;;;;;;6.2;100.0;102170;;;;
2022/10/12 05:20:00;;;;;;;1.6;1.6;;;;;;;6.2;100.0;102170;;;;
2022/10/12 05:21:00;;;;;;;1.6;1.6;;;;;;;6.2;100.0;102170;;;;
2022/10/12 05:22:00;;;;;;;1.6;1.6;;;;;;;6.2;100.0;102170;;;;
2022/10/12 05:23:00;;;;;;;1.6;1.6;;;;;;;6.2;100.0;102170;;;;
2022/10/12 05:24:00;;;;;;;1.6;1.6;;;;;;;6.2;100.0;102170;;;;
2022/10/12 05:25:00;;;;;;;2.0;2.0;;;;;;;6.3;100.0;102170;;;;
2022/10/12 05:26:00;;;;;;;2.0;2.0;;;;;;;6.3;100.0;102170;;;;
2022/10/12 05:27:01;;;;;;;2.0;2.0;;;;;;;6.3;100.0;102170;;;;
2022/10/12 05:28:00;;;;;;;2.0;2.0;;;;;;;6.3;100.0;102170;;;;
2022/10/12 05:29:00;;;;;;;2.0;2.0;;;;;;;6.2;100.0;102170;;;;
2022/10/12 05:30:00;;;;;;;2.0;2.0;;;;;;;6.2;100.0;102170;;;;
2022/10/12 05:31:00;;;;;;;2.0;2.0;;;;;;;6.2;100.0;102170;;;;
2022/10/12 05:32:00;;;;;;;2.0;2.0;;;;;;;6.2;100.0;102170;;;;
2022/10/12 05:33:00;;;;;;;2.0;2.0;;;;;;;6.3;100.0;102170;;;;
2022/10/12 05:34:00;;;;;;;2.0;2.0;;;;;;;6.3;100.0;102170;;;;
2022/10/12 05:35:00;;;;;;;2.0;2.0;;;;;;;6.3;100.0;102160;;;;
2022/10/12 05:36:00;;;;;;;2.0;2.0;;;;;;;6.3;100.0;102160;;;;
2022/10/12 05:37:00;;;;;;;2.0;2.0;;;;;;;6.2;100.0;102160;;;;
2022/10/12 05:38:00;;;;;;;2.0;2.0;;;;;;;6.2;100.0;102160;;;;
2022/10/12 05:39:00;;;;;;;2.0;2.0;;;;;;;6.2;100.0;102160;;;;
2022/10/12 05:40:00;;;;;;;2.0;2.0;;;;;;;6.2;100.0;102160;;;;
2022/10/12 05:41:01;;;;;;;2.0;2.0;;;;;;;6.2;100.0;102160;;;;
2022/10/12 05:42:00;;;;;;;2.0;2.0;;;;;;;6.2;100.0;102160;;;;
2022/10/12 05:43:00;;;;;;;2.0;2.0;;;;;;;6.2;100.0;102160;;;;
2022/10/12 05:44:00;;;;;;;2.0;2.0;;;;;;;6.2;100.0;102160;;;;
2022/10/12 05:45:00;;;;;;;1.6;1.6;;;;;;;6.2;100.0;102160;;;;
2022/10/12 05:46:00;;;;;;;1.6;1.6;;;;;;;6.2;100.0;102160;;;;
2022/10/12 05:47:00;;;;;;;1.6;1.6;;;;;;;6.2;100.0;102160;;;;
2022/10/12 05:48:00;;;;;;;1.6;1.6;;;;;;;6.2;100.0;102160;;;;
2022/10/12 05:49:00;;;;;;;1.6;1.6;;;;;;;6.2;100.0;102160;;;;
2022/10/12 05:50:00;;;;;;;1.6;1.6;;;;;;;6.2;100.0;102160;;;;
2022/10/12 05:51:00;;;;;;;1.6;1.6;;;;;;;6.2;100.0;102160;;;;
2022/10/12 05:52:00;;;;;;;1.6;1.6;;;;;;;6.2;100.0;102160;;;;
2022/10/12 05:53:00;;;;;;;1.6;1.6;;;;;;;6.2;100.0;102160;;;;
2022/10/12 05:54:00;;;;;;;1.6;1.6;;;;;;;6.2;100.0;102160;;;;
2022/10/12 05:55:00;;;;;;;1.6;1.6;;;;;;;6.2;100.0;102160;;;;
2022/10/12 05:56:00;;;;;;;1.6;1.6;;;;;;;6.2;100.0;102160;;;;
2022/10/12 05:57:00;;;;;;;1.6;1.6;;;;;;;6.1;100.0;102160;;;;
2022/10/12 05:58:00;;;;;;;1.6;1.6;;;;;;;6.1;100.0;102160;;;;
2022/10/12 05:59:00;;;;;;;1.6;1.6;;;;;;;6.1;100.0;102160;;;;
2022/10/12 06:00:00;;;;;;;1.6;1.6;;;;;;;6.1;100.0;102160;;;;
2022/10/12 06:01:04;;;;;;;1.6;1.6;;;;;;;6.1;100.0;102160;;;;
2022/10/12 06:02:00;;;;;;;1.6;1.6;;;;;;;6.1;100.0;102160;;;;
2022/10/12 06:03:00;;;;;;;1.6;1.6;;;;;;;6.2;100.0;102160;;;;
2022/10/12 06:04:00;;;;;;;1.6;1.6;;;;;;;6.2;100.0;102160;;;;
2022/10/12 06:05:00;;;;;;;1.7;1.7;;;;;;;6.2;100.0;102160;;;;
2022/10/12 06:06:00;;;;;;;1.7;1.7;;;;;;;6.2;100.0;102160;;;;
2022/10/12 06:07:00;;;;;;;1.7;1.7;;;;;;;6.1;100.0;102160;;;;
2022/10/12 06:08:00;;;;;;;1.7;1.7;;;;;;;6.1;100.0;102160;;;;
2022/10/12 06:09:00;;;;;;;1.7;1.7;;;;;;;6.2;100.0;102160;;;;
2022/10/12 06:10:00;;;;;;;1.7;1.7;;;;;;;6.2;100.0;102160;;;;
2022/10/12 06:11:00;;;;;;;1.7;1.7;;;;;;;6.2;100.0;102170;;;;
2022/10/12 06:12:00;;;;;;;1.7;1.7;;;;;;;6.2;100.0;102170;;;;
2022/10/12 06:13:00;;;;;;;1.7;1.7;;;;;;;6.2;100.0;102170;;;;
2022/10/12 06:14:00;;;;;;;1.7;1.7;;;;;;;6.2;100.0;102170;;;;
2022/10/12 06:15:00;;;;;;;1.7;1.7;;;;;;;6.3;100.0;102170;;;;
2022/10/12 06:16:00;;;;;;;1.7;1.7;;;;;;;6.3;100.0;102170;;;;
2022/10/12 06:17:00;;;;;;;1.7;1.7;;;;;;;6.3;100.0;102170;;;;
2022/10/12 06:18:00;;;;;;;1.7;1.7;;;;;;;6.3;100.0;102170;;;;
2022/10/12 06:19:00;;;;;;;1.7;1.7;;;;;;;6.2;100.0;102170;;;;
2022/10/12 06:20:00;;;;;;;1.7;1.7;;;;;;;6.2;100.0;102170;;;;
2022/10/12 06:21:10;;;;;;;1.7;1.7;;;;;;;6.3;100.0;102160;;;;
2022/10/12 06:22:00;;;;;;;1.7;1.7;;;;;;;6.3;100.0;102160;;;;
2022/10/12 06:23:00;;;;;;;1.7;1.7;;;;;;;6.2;100.0;102160;;;;
2022/10/12 06:24:00;;;;;;;1.7;1.7;;;;;;;6.2;100.0;102160;;;;
2022/10/12 06:25:00;;;;;;;1.8;1.8;;;;;;;6.2;100.0;102160;;;;
2022/10/12 06:26:00;;;;;;;1.8;1.8;;;;;;;6.2;100.0;102160;;;;
2022/10/12 06:27:00;;;;;;;1.8;1.8;;;;;;;6.2;100.0;102160;;;;
2022/10/12 06:28:00;;;;;;;1.8;1.8;;;;;;;6.2;100.0;102160;;;;
2022/10/12 06:29:00;;;;;;;1.8;1.8;;;;;;;6.3;100.0;102160;;;;